Time;durP1;ratioP1;P1;durP2;ratioP2;P2;SDS_P1;SDS_P2;PMS_P1;PMS_P2;Temp;Humidity;BMP_temperature;BMP_pressure;BME280_temperature;BME280_humidity;BME280_pressure;Samples;Min_cycle;Max_cycle;Signal;HPM_P1;HPM_P2
2021/03/13 00:01:12;;;;;;;;;;;19.70;54.10;;;;;;5035905;28;1346;-67
2021/03/13 00:03:37;;;;;;;;;;;19.60;54.00;;;;;;5032612;28;1939;-65
2021/03/13 00:06:03;;;;;;;;;;;19.70;54.10;;;;;;5034042;28;1083;-66
2021/03/13 00:08:28;;;;;;;;;;;19.60;54.10;;;;;;5034802;28;1103;-67
2021/03/13 00:10:54;;;;;;;;;;;19.60;54.10;;;;;;5040400;28;1174;-67
2021/03/13 00:13:19;;;;;;;;;;;19.60;54.10;;;;;;5054321;28;1260;-65
2021/03/13 00:15:45;;;;;;;;;;;19.60;54.20;;;;;;5027694;28;1271;-66
2021/03/13 00:18:10;;;;;;;;;;;19.60;54.20;;;;;;5041821;28;1081;-66
2021/03/13 00:20:36;;;;;;;;;;;19.60;54.20;;;;;;5054010;28;1274;-65
2021/03/13 00:23:02;;;;;;;;;;;19.60;54.20;;;;;;5039216;28;2861;-65
2021/03/13 00:25:28;;;;;;;;;;;19.60;54.20;;;;;;5035209;28;1906;-66
2021/03/13 00:27:53;;;;;;;;;;;19.60;54.20;;;;;;5049802;28;1382;-66
2021/03/13 00:30:20;;;;;;;;;;;19.60;54.20;;;;;;5026934;28;1365;-67
2021/03/13 00:32:46;;;;;;;;;;;19.60;54.30;;;;;;5034710;28;1338;-66
2021/03/13 00:35:12;;;;;;;;;;;19.60;54.30;;;;;;5049653;28;1347;-65
2021/03/13 00:37:37;;;;;;;;;;;19.60;54.30;;;;;;5046048;28;1165;-66
2021/03/13 00:40:04;;;;;;;;;;;19.60;54.30;;;;;;5029384;28;1358;-64
2021/03/13 00:42:29;;;;;;;;;;;19.60;54.30;;;;;;5030670;28;1285;-65
2021/03/13 00:44:54;;;;;;;;;;;19.50;54.30;;;;;;5029133;28;1902;-64
2021/03/13 00:47:20;;;;;;;;;;;19.50;54.30;;;;;;5026123;28;1307;-65
2021/03/13 00:49:45;;;;;;;;;;;19.50;54.30;;;;;;5029645;28;1380;-65
2021/03/13 00:52:11;;;;;;;;;;;19.50;54.30;;;;;;5028087;28;1283;-64
2021/03/13 00:54:36;;;;;;;;;;;19.50;54.40;;;;;;5035625;28;1347;-65
2021/03/13 00:57:02;;;;;;;;;;;19.50;54.40;;;;;;5031541;28;1315;-66
2021/03/13 00:59:28;;;;;;;;;;;19.50;54.40;;;;;;5028606;28;1351;-66
2021/03/13 01:01:53;;;;;;;;;;;19.50;54.40;;;;;;5045127;28;1331;-66
2021/03/13 01:04:19;;;;;;;;;;;19.50;54.40;;;;;;5070372;28;1906;-66
2021/03/13 01:06:45;;;;;;;;;;;19.50;54.50;;;;;;5053523;28;929;-66
2021/03/13 01:09:10;;;;;;;;;;;19.50;54.50;;;;;;5038086;28;1179;-66
2021/03/13 01:11:35;;;;;;;;;;;19.50;54.50;;;;;;5034307;28;1456;-66
2021/03/13 01:14:01;;;;;;;;;;;19.50;54.50;;;;;;5035032;28;1293;-66
2021/03/13 01:16:26;;;;;;;;;;;19.50;54.50;;;;;;5034916;28;1147;-69
2021/03/13 01:18:52;;;;;;;;;;;19.50;54.50;;;;;;5034222;28;1323;-67
2021/03/13 01:21:17;;;;;;;;;;;19.50;54.50;;;;;;5034937;28;1280;-67
2021/03/13 01:23:43;;;;;;;;;;;19.50;54.50;;;;;;5034381;28;1969;-67
2021/03/13 01:26:08;;;;;;;;;;;19.50;54.60;;;;;;5034730;28;1267;-67
2021/03/13 01:28:33;;;;;;;;;;;19.40;54.50;;;;;;5032451;28;1449;-67
2021/03/13 01:30:59;;;;;;;;;;;19.50;54.60;;;;;;5042881;28;1268;-69
2021/03/13 01:33:24;;;;;;;;;;;19.40;54.50;;;;;;5054294;28;1074;-67
2021/03/13 01:35:50;;;;;;;;;;;19.40;54.50;;;;;;5054626;28;1329;-67
2021/03/13 01:38:15;;;;;;;;;;;19.40;54.50;;;;;;5053650;28;1370;-69
2021/03/13 01:40:41;;;;;;;;;;;19.40;54.50;;;;;;5045717;28;1373;-66
2021/03/13 01:43:06;;;;;;;;;;;19.40;54.60;;;;;;5028993;28;1381;-66
2021/03/13 01:45:31;;;;;;;;;;;19.40;54.60;;;;;;5028395;28;1953;-68
2021/03/13 01:47:57;;;;;;;;;;;19.40;54.60;;;;;;5026330;28;1348;-67
2021/03/13 01:50:22;;;;;;;;;;;19.40;54.60;;;;;;5024502;28;1296;-66
2021/03/13 01:52:48;;;;;;;;;;;19.40;54.60;;;;;;5029357;28;1393;-67
2021/03/13 01:55:13;;;;;;;;;;;19.40;54.60;;;;;;5026150;28;1308;-68
2021/03/13 01:57:39;;;;;;;;;;;19.40;54.60;;;;;;5027429;28;1378;-66
2021/03/13 02:00:05;;;;;;;;;;;19.40;54.70;;;;;;5022295;28;1233;-66
2021/03/13 02:02:30;;;;;;;;;;;19.40;54.60;;;;;;5028586;28;1339;-67
2021/03/13 02:04:56;;;;;;;;;;;19.40;54.70;;;;;;5025500;28;1951;-66
2021/03/13 02:07:22;;;;;;;;;;;19.40;54.70;;;;;;5029510;28;1380;-67
2021/03/13 02:10:03;;;;;;;;;;;19.40;54.70;;;;;;5010125;28;1352;-66
2021/03/13 02:12:38;;;;;;;;;;;19.40;54.70;;;;;;5031246;28;1363;-66
2021/03/13 02:15:04;;;;;;;;;;;19.30;54.60;;;;;;5023163;28;1301;-67
2021/03/13 02:17:35;;;;;;;;;;;19.30;54.70;;;;;;5028251;28;1329;-67
2021/03/13 02:20:16;;;;;;;;;;;19.30;54.70;;;;;;5025054;28;1568;-67
2021/03/13 02:22:41;;;;;;;;;;;19.30;54.70;;;;;;5040655;28;1370;-67
2021/03/13 02:25:09;;;;;;;;;;;19.30;54.70;;;;;;5023739;28;1918;-67
2021/03/13 02:27:41;;;;;;;;;;;19.30;54.70;;;;;;5026651;28;1253;-68
2021/03/13 02:30:13;;;;;;;;;;;19.30;54.70;;;;;;5028944;28;1336;-68
2021/03/13 02:32:54;;;;;;;;;;;19.30;54.70;;;;;;5053139;28;1537;-67
2021/03/13 02:35:20;;;;;;;;;;;19.30;54.70;;;;;;5023816;28;1282;-68
2021/03/13 02:37:47;;;;;;;;;;;19.30;54.70;;;;;;5048130;28;1343;-68
2021/03/13 02:40:14;;;;;;;;;;;19.30;54.70;;;;;;5048738;28;1292;-67
2021/03/13 02:42:45;;;;;;;;;;;19.30;54.70;;;;;;5048200;28;1569;-68
2021/03/13 02:45:10;;;;;;;;;;;19.30;54.70;;;;;;5048513;28;1963;-68
2021/03/13 02:47:38;;;;;;;;;;;19.30;54.70;;;;;;5047621;28;1192;-68
2021/03/13 02:50:04;;;;;;;;;;;19.30;54.70;;;;;;5048654;28;1479;-67
2021/03/13 02:52:29;;;;;;;;;;;19.40;54.70;;;;;;5032593;28;1354;-67
2021/03/13 02:54:54;;;;;;;;;;;19.40;54.70;;;;;;5048579;28;1360;-67
2021/03/13 02:57:20;;;;;;;;;;;19.40;54.60;;;;;;5047780;28;1243;-67
2021/03/13 02:59:45;;;;;;;;;;;19.40;54.60;;;;;;5033024;28;1266;-67
2021/03/13 03:02:12;;;;;;;;;;;19.40;54.50;;;;;;5044380;28;1379;-67
2021/03/13 03:04:37;;;;;;;;;;;19.40;54.50;;;;;;5047456;28;1957;-67
2021/03/13 03:07:03;;;;;;;;;;;19.40;54.50;;;;;;5031388;28;1533;-67
2021/03/13 03:09:28;;;;;;;;;;;19.40;54.50;;;;;;5032552;28;1289;-67
2021/03/13 03:11:54;;;;;;;;;;;19.40;54.40;;;;;;5054048;22;2113;-70
2021/03/13 03:14:19;;;;;;;;;;;19.40;54.40;;;;;;5039939;28;1216;-70
2021/03/13 03:16:49;;;;;;;;;;;19.40;54.40;;;;;;5023893;28;1633;-70
2021/03/13 03:19:15;;;;;;;;;;;19.50;54.40;;;;;;5030511;28;1550;-70
2021/03/13 03:21:40;;;;;;;;;;;19.50;54.40;;;;;;5029142;28;1412;-70
2021/03/13 03:24:09;;;;;;;;;;;19.50;54.40;;;;;;5036254;28;1959;-71
2021/03/13 03:26:34;;;;;;;;;;;19.50;54.40;;;;;;5040575;28;1271;-70
2021/03/13 03:29:00;;;;;;;;;;;19.40;54.30;;;;;;5025805;28;1242;-70
2021/03/13 03:31:25;;;;;;;;;;;19.50;54.40;;;;;;5030638;28;1397;-70
2021/03/13 03:33:50;;;;;;;;;;;19.50;54.40;;;;;;5030682;28;1240;-69
2021/03/13 03:36:16;;;;;;;;;;;19.50;54.40;;;;;;5030511;28;1476;-70
2021/03/13 03:38:41;;;;;;;;;;;19.50;54.30;;;;;;5030183;28;1651;-70
2021/03/13 03:41:07;;;;;;;;;;;19.50;54.20;;;;;;5029260;28;1296;-70
2021/03/13 03:43:32;;;;;;;;;;;19.60;54.20;;;;;;5028840;28;1965;-69
2021/03/13 03:45:58;;;;;;;;;;;19.60;54.00;;;;;;5030584;28;1355;-70
2021/03/13 03:48:23;;;;;;;;;;;19.70;54.60;;;;;;5028317;28;1698;-71
2021/03/13 03:50:49;;;;;;;;;;;19.80;53.80;;;;;;5030277;28;1459;-69
2021/03/13 03:53:18;;;;;;;;;;;19.90;53.50;;;;;;5031825;28;1371;-70
2021/03/13 03:55:44;;;;;;;;;;;20.10;53.30;;;;;;5029256;28;1350;-70
2021/03/13 03:58:10;;;;;;;;;;;20.10;53.10;;;;;;5029748;28;1714;-70
2021/03/13 04:00:35;;;;;;;;;;;20.30;53.00;;;;;;5047498;28;1888;-70
2021/03/13 04:03:01;;;;;;;;;;;20.40;52.80;;;;;;5047194;28;1649;-70
2021/03/13 04:05:27;;;;;;;;;;;20.40;52.50;;;;;;5030634;28;1969;-70
2021/03/13 04:07:52;;;;;;;;;;;20.50;52.30;;;;;;5031045;28;1311;-70
2021/03/13 04:10:18;;;;;;;;;;;20.60;52.20;;;;;;5047235;28;1173;-70
2021/03/13 04:12:43;;;;;;;;;;;20.60;52.00;;;;;;5046529;28;1213;-70
2021/03/13 04:15:09;;;;;;;;;;;20.70;51.90;;;;;;5046910;28;1114;-70
2021/03/13 04:17:35;;;;;;;;;;;20.80;51.80;;;;;;5033396;28;1374;-70
2021/03/13 04:20:00;;;;;;;;;;;20.80;51.70;;;;;;5050715;28;1321;-70
2021/03/13 04:22:26;;;;;;;;;;;20.80;51.60;;;;;;5050629;28;1213;-70
2021/03/13 04:24:51;;;;;;;;;;;20.90;51.50;;;;;;5033615;28;1906;-70
2021/03/13 04:27:17;;;;;;;;;;;20.90;51.40;;;;;;5033115;28;1131;-70
2021/03/13 04:29:42;;;;;;;;;;;21.00;51.40;;;;;;5035065;28;1289;-70
2021/03/13 04:32:07;;;;;;;;;;;21.00;51.30;;;;;;5050854;28;1318;-70
2021/03/13 04:34:34;;;;;;;;;;;21.00;51.20;;;;;;5035254;28;1072;-70
2021/03/13 04:37:01;;;;;;;;;;;21.10;51.20;;;;;;5050184;28;1289;-70
2021/03/13 04:39:26;;;;;;;;;;;21.10;51.10;;;;;;5034674;28;1131;-70
2021/03/13 04:41:51;;;;;;;;;;;21.10;51.10;;;;;;5050164;28;1240;-70
2021/03/13 04:44:17;;;;;;;;;;;21.20;51.10;;;;;;5034852;28;1898;-70
2021/03/13 04:46:42;;;;;;;;;;;21.20;51.00;;;;;;5033832;28;1167;-70
2021/03/13 04:49:08;;;;;;;;;;;21.20;51.00;;;;;;5049248;28;1294;-70
2021/03/13 04:51:33;;;;;;;;;;;21.20;51.00;;;;;;5050360;28;1371;-70
2021/03/13 04:53:59;;;;;;;;;;;21.20;51.00;;;;;;5050202;28;1079;-70
2021/03/13 04:56:24;;;;;;;;;;;21.20;50.90;;;;;;5050347;28;1282;-70
2021/03/13 04:58:49;;;;;;;;;;;21.20;50.90;;;;;;5049167;28;1051;-70
2021/03/13 05:01:15;;;;;;;;;;;21.20;50.90;;;;;;5050006;28;1359;-70
2021/03/13 05:03:40;;;;;;;;;;;21.20;50.90;;;;;;5034178;28;1894;-70
2021/03/13 05:06:06;;;;;;;;;;;21.20;51.00;;;;;;5034419;28;1317;-70
2021/03/13 05:08:31;;;;;;;;;;;21.20;50.90;;;;;;5033797;28;1332;-70
2021/03/13 05:10:57;;;;;;;;;;;21.20;50.90;;;;;;5034175;28;1201;-70
2021/03/13 05:13:22;;;;;;;;;;;21.20;51.00;;;;;;5034081;28;1282;-70
2021/03/13 05:15:48;;;;;;;;;;;21.20;51.00;;;;;;5034460;28;1143;-70
2021/03/13 05:18:13;;;;;;;;;;;21.20;51.10;;;;;;5034512;28;1119;-70
2021/03/13 05:20:38;;;;;;;;;;;21.20;51.10;;;;;;5034533;28;1111;-70
2021/03/13 05:23:04;;;;;;;;;;;21.20;51.10;;;;;;5049316;28;1185;-70
2021/03/13 05:25:29;;;;;;;;;;;21.20;51.20;;;;;;5034367;28;1979;-70
2021/03/13 05:27:55;;;;;;;;;;;21.20;51.30;;;;;;5032911;28;1271;-72
2021/03/13 05:30:20;;;;;;;;;;;21.10;51.30;;;;;;5032938;28;1424;-71
2021/03/13 05:32:46;;;;;;;;;;;21.10;51.30;;;;;;5033832;28;1301;-71
2021/03/13 05:35:11;;;;;;;;;;;21.10;51.30;;;;;;5033999;28;1100;-72
2021/03/13 05:37:37;;;;;;;;;;;21.10;51.40;;;;;;5048453;28;1135;-71
2021/03/13 05:40:03;;;;;;;;;;;21.00;51.40;;;;;;5049268;28;1107;-71
2021/03/13 05:42:28;;;;;;;;;;;21.00;51.50;;;;;;5048877;28;1368;-71
2021/03/13 05:44:54;;;;;;;;;;;21.00;51.60;;;;;;5049293;28;1901;-72
2021/03/13 05:47:20;;;;;;;;;;;21.00;51.60;;;;;;5033469;28;1271;-71
2021/03/13 05:49:46;;;;;;;;;;;21.00;51.60;;;;;;5048866;28;1238;-71
2021/03/13 05:52:11;;;;;;;;;;;21.00;51.70;;;;;;5048888;28;1289;-71
2021/03/13 05:54:37;;;;;;;;;;;20.90;51.70;;;;;;5048883;28;1115;-71
2021/03/13 05:57:06;;;;;;;;;;;20.90;51.70;;;;;;5048525;28;1087;-71
2021/03/13 05:59:31;;;;;;;;;;;20.90;51.80;;;;;;5048465;28;1324;-71
2021/03/13 06:01:57;;;;;;;;;;;20.90;51.80;;;;;;5048963;28;1369;-71
2021/03/13 06:04:22;;;;;;;;;;;20.90;51.80;;;;;;5033418;28;1894;-71
2021/03/13 06:06:48;;;;;;;;;;;20.90;51.80;;;;;;5033384;28;1064;-71
2021/03/13 06:09:13;;;;;;;;;;;20.90;51.80;;;;;;5047706;28;1342;-71
2021/03/13 06:11:39;;;;;;;;;;;20.90;51.70;;;;;;5032075;28;1353;-71
2021/03/13 06:14:04;;;;;;;;;;;21.00;51.70;;;;;;5031395;28;1068;-70
2021/03/13 06:16:32;;;;;;;;;;;21.00;51.70;;;;;;5033243;28;1155;-70
2021/03/13 06:18:58;;;;;;;;;;;21.00;51.60;;;;;;5031244;28;1179;-70
2021/03/13 06:21:27;;;;;;;;;;;21.10;51.60;;;;;;5033028;28;1224;-70
2021/03/13 06:23:59;;;;;;;;;;;21.10;51.50;;;;;;5032715;28;1899;-70
2021/03/13 06:26:25;;;;;;;;;;;21.10;51.50;;;;;;5032492;28;1072;-70
2021/03/13 06:28:51;;;;;;;;;;;21.10;51.40;;;;;;5032344;28;1010;-70
2021/03/13 06:31:20;;;;;;;;;;;21.20;51.50;;;;;;5031171;28;1664;-71
2021/03/13 06:33:46;;;;;;;;;;;21.10;51.40;;;;;;5048437;28;1523;-70
2021/03/13 06:36:12;;;;;;;;;;;21.20;51.40;;;;;;5032931;28;1292;-70
2021/03/13 06:38:37;;;;;;;;;;;21.10;51.30;;;;;;5047583;28;1256;-70
2021/03/13 06:41:09;;;;;;;;;;;21.20;51.40;;;;;;5032645;28;1123;-70
2021/03/13 06:43:35;;;;;;;;;;;21.10;51.40;;;;;;5032062;28;1902;-71
2021/03/13 06:46:00;;;;;;;;;;;21.10;51.40;;;;;;5047826;28;1118;-71
2021/03/13 06:48:30;;;;;;;;;;;21.10;51.40;;;;;;5032139;28;1060;-70
2021/03/13 06:51:14;;;;;;;;;;;21.10;51.50;;;;;;5048186;28;1118;-70
2021/03/13 06:53:39;;;;;;;;;;;21.10;51.50;;;;;;5032755;28;1283;-70
2021/03/13 06:56:08;;;;;;;;;;;21.10;51.50;;;;;;5047557;28;1119;-70
2021/03/13 06:58:33;;;;;;;;;;;21.10;51.50;;;;;;5047181;28;1071;-70
2021/03/13 07:01:02;;;;;;;;;;;21.10;51.60;;;;;;5048090;28;1249;-70
2021/03/13 07:03:27;;;;;;;;;;;21.10;51.60;;;;;;5047478;28;1956;-71
2021/03/13 07:05:53;;;;;;;;;;;21.00;51.60;;;;;;5047447;28;1341;-71
2021/03/13 07:08:24;;;;;;;;;;;21.00;51.60;;;;;;5046889;28;1258;-69
2021/03/13 07:10:50;;;;;;;;;;;21.00;51.70;;;;;;5032507;28;1210;-70
2021/03/13 07:13:43;;;;;;;;;;;21.00;51.70;;;;;;5047004;28;1318;-70
2021/03/13 07:16:24;;;;;;;;;;;21.00;52.40;;;;;;5031449;28;1103;-70
2021/03/13 07:18:50;;;;;;;;;;;21.00;51.80;;;;;;5046632;28;1095;-70
2021/03/13 07:21:16;;;;;;;;;;;20.90;51.80;;;;;;5047528;28;1347;-70
2021/03/13 07:23:42;;;;;;;;;;;20.90;51.80;;;;;;5047441;28;1902;-70
2021/03/13 07:26:08;;;;;;;;;;;20.90;51.90;;;;;;5031370;28;1272;-70
2021/03/13 07:28:33;;;;;;;;;;;20.90;51.90;;;;;;5046801;28;1084;-70
2021/03/13 07:30:58;;;;;;;;;;;20.90;52.00;;;;;;5046988;28;1063;-70
2021/03/13 07:33:24;;;;;;;;;;;20.80;52.00;;;;;;5047483;28;1205;-71
2021/03/13 07:35:50;;;;;;;;;;;20.80;52.00;;;;;;5042361;28;1753;-70
2021/03/13 07:38:15;;;;;;;;;;;20.80;52.10;;;;;;5037709;28;1778;-69
2021/03/13 07:40:44;;;;;;;;;;;20.80;52.10;;;;;;5027228;28;1645;-69
2021/03/13 07:43:11;;;;;;;;;;;20.80;52.20;;;;;;5029135;28;1300;-70
2021/03/13 07:45:37;;;;;;;;;;;20.80;52.20;;;;;;5060001;28;1937;-70
2021/03/13 07:48:02;;;;;;;;;;;20.80;52.20;;;;;;5046631;28;1354;-70
2021/03/13 07:50:28;;;;;;;;;;;20.70;52.20;;;;;;5051394;28;1326;-70
2021/03/13 07:52:55;;;;;;;;;;;20.80;52.30;;;;;;5054519;28;1288;-70
2021/03/13 07:55:20;;;;;;;;;;;20.70;52.30;;;;;;5054769;28;1268;-69
2021/03/13 07:57:47;;;;;;;;;;;20.70;52.40;;;;;;5039007;28;1501;-69
2021/03/13 08:00:12;;;;;;;;;;;20.70;52.40;;;;;;5051059;28;1318;-69
2021/03/13 08:02:39;;;;;;;;;;;20.70;52.50;;;;;;5051178;28;1429;-68
2021/03/13 08:05:06;;;;;;;;;;;20.70;52.50;;;;;;5035686;28;1902;-68
2021/03/13 08:07:50;;;;;;;;;;;20.70;52.50;;;;;;5050003;28;1276;-68
2021/03/13 08:10:34;;;;;;;;;;;20.60;52.50;;;;;;5035580;28;1166;-69
2021/03/13 08:12:59;;;;;;;;;;;20.60;52.50;;;;;;5034269;28;1273;-69
2021/03/13 08:15:31;;;;;;;;;;;20.60;52.60;;;;;;5034132;28;1383;-68
2021/03/13 08:17:56;;;;;;;;;;;20.60;52.60;;;;;;5033523;28;1299;-69
2021/03/13 08:20:29;;;;;;;;;;;20.50;52.60;;;;;;5049545;28;1317;-70
2021/03/13 08:23:14;;;;;;;;;;;20.50;52.70;;;;;;5049700;28;1220;-70
2021/03/13 08:26:09;;;;;;;;;;;20.50;52.70;;;;;;5030012;28;1910;-68
2021/03/13 08:28:46;;;;;;;;;;;20.50;52.70;;;;;;5028460;28;1339;-70
2021/03/13 08:31:24;;;;;;;;;;;20.50;52.70;;;;;;5033995;28;1131;-69
2021/03/13 08:33:53;;;;;;;;;;;20.50;52.80;;;;;;5033869;28;1262;-69
2021/03/13 08:36:25;;;;;;;;;;;20.50;52.80;;;;;;5049051;28;1266;-69
2021/03/13 08:38:52;;;;;;;;;;;20.50;52.80;;;;;;5033251;28;1063;-69
2021/03/13 08:41:36;;;;;;;;;;;20.50;52.90;;;;;;5049075;28;1316;-68
2021/03/13 08:44:02;;;;;;;;;;;20.50;52.90;;;;;;5033298;28;1989;-68
2021/03/13 08:46:47;;;;;;;;;;;20.50;52.90;;;;;;5033889;28;1041;-69
2021/03/13 08:49:26;;;;;;;;;;;20.40;52.90;;;;;;5032804;28;1295;-69
2021/03/13 08:52:07;;;;;;;;;;;20.40;52.90;;;;;;5031924;28;1467;-69
2021/03/13 08:54:38;;;;;;;;;;;20.40;53.00;;;;;;5033749;28;1342;-68
2021/03/13 08:57:06;;;;;;;;;;;20.40;53.00;;;;;;5032934;28;1329;-69
2021/03/13 08:59:32;;;;;;;;;;;20.40;53.00;;;;;;5033396;28;1456;-68
2021/03/13 09:02:02;;;;;;;;;;;20.40;53.00;;;;;;5047445;28;1303;-69
2021/03/13 09:04:29;;;;;;;;;;;20.40;53.10;;;;;;5048425;28;1902;-69
2021/03/13 09:06:54;;;;;;;;;;;20.40;53.10;;;;;;5048523;28;1267;-69
2021/03/13 09:09:21;;;;;;;;;;;20.40;53.10;;;;;;5032838;28;1384;-70
2021/03/13 09:12:07;;;;;;;;;;;20.30;53.10;;;;;;5031024;28;513485;-69
2021/03/13 09:14:33;;;;;;;;;;;20.30;53.10;;;;;;5034482;28;1257;-69
2021/03/13 09:17:06;;;;;;;;;;;20.30;53.10;;;;;;5034178;28;1155;-68
2021/03/13 09:19:31;;;;;;;;;;;20.30;53.20;;;;;;5033706;28;1281;-69
2021/03/13 09:21:56;;;;;;;;;;;20.30;53.20;;;;;;5034255;28;1291;-69
2021/03/13 09:24:23;;;;;;;;;;;20.30;53.20;;;;;;5049250;28;1976;-69
2021/03/13 09:26:52;;;;;;;;;;;20.30;53.20;;;;;;5030146;28;2191;-69
2021/03/13 09:29:44;;;;;;;;;;;20.30;53.30;;;;;;5033066;28;1067;-69
2021/03/13 09:32:13;;;;;;;;;;;20.30;53.30;;;;;;5031699;28;1414;-69
2021/03/13 09:34:39;;;;;;;;;;;20.30;53.30;;;;;;5033536;28;1251;-69
2021/03/13 09:37:20;;;;;;;;;;;20.20;53.30;;;;;;5049038;28;1198;-69
2021/03/13 09:39:46;;;;;;;;;;;20.20;53.30;;;;;;5029817;28;1397;-69
2021/03/13 09:42:12;;;;;;;;;;;20.20;53.30;;;;;;5048879;28;1369;-68
2021/03/13 09:44:39;;;;;;;;;;;20.20;53.40;;;;;;5033253;28;1968;-69
2021/03/13 09:47:11;;;;;;;;;;;20.20;53.40;;;;;;5048943;28;1305;-70
2021/03/13 09:49:36;;;;;;;;;;;20.20;53.40;;;;;;5048419;28;1362;-70
2021/03/13 09:52:02;;;;;;;;;;;20.20;53.40;;;;;;5033799;28;1302;-70
2021/03/13 09:54:27;;;;;;;;;;;20.20;53.40;;;;;;5033567;28;1362;-69
2021/03/13 09:56:53;;;;;;;;;;;20.20;53.40;;;;;;5033135;28;1271;-70
2021/03/13 09:59:18;;;;;;;;;;;20.20;53.50;;;;;;5048386;28;1437;-69
2021/03/13 10:01:44;;;;;;;;;;;20.20;53.50;;;;;;5031535;28;1464;-69
2021/03/13 10:04:09;;;;;;;;;;;20.20;53.50;;;;;;5033220;28;1902;-70
2021/03/13 10:06:35;;;;;;;;;;;20.10;53.50;;;;;;5048550;28;1143;-72
2021/03/13 10:09:00;;;;;;;;;;;20.10;53.50;;;;;;5034903;28;1122;-71
2021/03/13 10:11:39;;;;;;;;;;;20.10;53.50;;;;;;5032693;28;1356;-71
2021/03/13 10:14:04;;;;;;;;;;;20.10;53.60;;;;;;5030354;28;1313;-67
2021/03/13 10:16:32;;;;;;;;;;;20.10;53.60;;;;;;5024784;28;981;-67
2021/03/13 10:18:58;;;;;;;;;;;20.10;53.60;;;;;;5030932;28;1349;-67
2021/03/13 10:21:23;;;;;;;;;;;20.10;53.60;;;;;;5047777;28;1381;-67
2021/03/13 10:23:49;;;;;;;;;;;20.10;53.60;;;;;;5035347;28;1955;-67
2021/03/13 10:26:15;;;;;;;;;;;20.10;53.70;;;;;;5068334;28;1395;-67
2021/03/13 10:28:47;;;;;;;;;;;20.10;53.70;;;;;;5066545;28;1360;-67
2021/03/13 10:31:12;;;;;;;;;;;20.10;53.70;;;;;;5036581;28;1154;-68
2021/03/13 10:33:41;;;;;;;;;;;20.10;53.70;;;;;;5031574;28;1336;-67
2021/03/13 10:36:07;;;;;;;;;;;20.10;53.70;;;;;;5044812;28;1308;-67
2021/03/13 10:38:39;;;;;;;;;;;20.10;54.30;;;;;;5050749;28;1145;-67
2021/03/13 10:41:07;;;;;;;;;;;20.10;53.70;;;;;;5051819;28;1419;-67
2021/03/13 10:43:36;;;;;;;;;;;20.00;53.70;;;;;;5066697;28;1339;-67
2021/03/13 10:46:03;;;;;;;;;;;20.10;53.80;;;;;;5050763;28;1118;-67
2021/03/13 10:48:54;;;;;;;;;;;20.00;54.30;;;;;;5047642;28;1280;-68
2021/03/13 10:51:20;;;;;;;;;;;20.00;53.70;;;;;;5029410;28;1378;-68
2021/03/13 10:53:45;;;;;;;;;;;20.00;53.80;;;;;;5028688;28;1243;-67
2021/03/13 10:56:11;;;;;;;;;;;20.00;53.80;;;;;;5025520;28;1260;-67
2021/03/13 10:58:37;;;;;;;;;;;20.00;53.80;;;;;;5046478;28;1298;-67
2021/03/13 11:01:03;;;;;;;;;;;20.00;53.80;;;;;;5031467;28;1436;-67
2021/03/13 11:03:28;;;;;;;;;;;20.00;53.80;;;;;;5029699;28;1308;-67
2021/03/13 11:05:54;;;;;;;;;;;20.00;53.80;;;;;;5046808;28;1965;-67
2021/03/13 11:08:20;;;;;;;;;;;20.00;53.80;;;;;;5029546;28;1834;-67
2021/03/13 11:10:45;;;;;;;;;;;20.00;53.80;;;;;;5031278;28;1280;-67
2021/03/13 11:13:11;;;;;;;;;;;20.00;53.80;;;;;;5046494;28;1266;-67
2021/03/13 11:15:36;;;;;;;;;;;20.00;53.80;;;;;;5036939;28;2266;-68
2021/03/13 11:18:02;;;;;;;;;;;20.00;53.80;;;;;;5029814;28;1283;-67
2021/03/13 11:20:27;;;;;;;;;;;20.00;53.80;;;;;;5031006;28;1370;-67
2021/03/13 11:22:52;;;;;;;;;;;20.00;53.80;;;;;;5042283;28;1219;-67
2021/03/13 11:25:18;;;;;;;;;;;20.00;53.80;;;;;;5027808;28;1964;-67
2021/03/13 11:27:44;;;;;;;;;;;20.00;53.80;;;;;;5034160;28;1076;-68
2021/03/13 11:30:09;;;;;;;;;;;20.00;53.80;;;;;;5051474;28;1362;-67
2021/03/13 11:32:35;;;;;;;;;;;19.90;53.80;;;;;;5051647;28;1510;-67
2021/03/13 11:35:00;;;;;;;;;;;19.90;53.80;;;;;;5052984;28;985;-67
2021/03/13 11:37:26;;;;;;;;;;;19.90;53.80;;;;;;5055836;28;1253;-67
2021/03/13 11:39:51;;;;;;;;;;;19.90;53.80;;;;;;5055783;28;1372;-67
2021/03/13 11:42:16;;;;;;;;;;;19.90;53.80;;;;;;5055651;28;1368;-67
2021/03/13 11:44:42;;;;;;;;;;;20.00;53.90;;;;;;5055737;28;1894;-67
2021/03/13 11:47:07;;;;;;;;;;;20.00;53.90;;;;;;5055206;28;1346;-67
2021/03/13 11:49:33;;;;;;;;;;;19.90;53.80;;;;;;5054223;28;2058;-67
2021/03/13 11:51:58;;;;;;;;;;;19.90;53.80;;;;;;5055674;28;1353;-67
2021/03/13 11:54:24;;;;;;;;;;;19.90;53.90;;;;;;5055452;28;1302;-67
2021/03/13 11:56:49;;;;;;;;;;;19.90;53.80;;;;;;5055969;28;1429;-67
2021/03/13 11:59:14;;;;;;;;;;;19.90;53.90;;;;;;5055616;28;1349;-67
2021/03/13 12:01:40;;;;;;;;;;;19.90;53.90;;;;;;5054781;28;1380;-67
2021/03/13 12:04:05;;;;;;;;;;;19.90;53.90;;;;;;5055445;28;1889;-67
2021/03/13 12:06:31;;;;;;;;;;;19.90;53.90;;;;;;5070986;28;1298;-67
2021/03/13 12:08:58;;;;;;;;;;;19.90;53.90;;;;;;5051729;28;1504;-67
2021/03/13 12:11:23;;;;;;;;;;;19.90;53.90;;;;;;5050589;28;1350;-67
2021/03/13 12:13:49;;;;;;;;;;;19.90;53.90;;;;;;5051093;28;1306;-67
2021/03/13 12:16:14;;;;;;;;;;;19.90;53.90;;;;;;5035191;28;1158;-67
2021/03/13 12:18:39;;;;;;;;;;;19.90;53.90;;;;;;5034937;28;1307;-67
2021/03/13 12:21:05;;;;;;;;;;;19.90;53.90;;;;;;5035151;28;1382;-67
2021/03/13 12:23:30;;;;;;;;;;;19.90;53.90;;;;;;5035256;28;1348;-67
2021/03/13 12:25:56;;;;;;;;;;;19.90;53.90;;;;;;5051291;28;1914;-67
2021/03/13 12:28:21;;;;;;;;;;;19.90;53.90;;;;;;5032943;28;1358;-67
2021/03/13 12:30:47;;;;;;;;;;;19.90;53.90;;;;;;5034948;28;1147;-67
2021/03/13 12:33:12;;;;;;;;;;;19.90;53.90;;;;;;5034791;28;1439;-67
2021/03/13 12:35:38;;;;;;;;;;;19.90;53.90;;;;;;5035373;28;1259;-67
2021/03/13 12:38:04;;;;;;;;;;;19.80;53.90;;;;;;5033934;28;1248;-67
2021/03/13 12:40:29;;;;;;;;;;;19.90;54.00;;;;;;5035398;28;1283;-69
2021/03/13 12:42:54;;;;;;;;;;;19.80;54.00;;;;;;5034255;28;1350;-68
2021/03/13 12:45:20;;;;;;;;;;;19.80;54.00;;;;;;5034987;28;1883;-68
2021/03/13 12:47:47;;;;;;;;;;;19.90;54.00;;;;;;5049660;28;1340;-68
2021/03/13 12:50:13;;;;;;;;;;;19.90;54.00;;;;;;5034683;28;1259;-67
2021/03/13 12:52:38;;;;;;;;;;;19.80;54.00;;;;;;5034755;28;1374;-67
2021/03/13 12:55:04;;;;;;;;;;;19.80;54.00;;;;;;5034190;28;1251;-69
2021/03/13 12:57:30;;;;;;;;;;;19.80;54.00;;;;;;5032019;28;2128;-69
2021/03/13 12:59:55;;;;;;;;;;;19.90;54.10;;;;;;5049622;28;1173;-70
2021/03/13 13:02:20;;;;;;;;;;;19.80;54.00;;;;;;5034221;28;1289;-70
2021/03/13 13:04:46;;;;;;;;;;;19.80;53.90;;;;;;5034184;28;1943;-69
2021/03/13 13:07:11;;;;;;;;;;;19.90;53.90;;;;;;5034110;28;1267;-69
2021/03/13 13:09:37;;;;;;;;;;;19.90;53.80;;;;;;5049698;28;1169;-68
2021/03/13 13:12:02;;;;;;;;;;;20.00;53.70;;;;;;5030924;28;1263;-69
2021/03/13 13:14:28;;;;;;;;;;;20.10;53.60;;;;;;5025970;28;1084;-68
2021/03/13 13:16:53;;;;;;;;;;;20.20;53.50;;;;;;5029517;28;1909;-68
2021/03/13 13:19:19;;;;;;;;;;;20.20;53.20;;;;;;5032684;28;1213;-69
2021/03/13 13:21:44;;;;;;;;;;;20.30;53.10;;;;;;5034155;28;1279;-68
2021/03/13 13:24:11;;;;;;;;;;;20.50;53.00;;;;;;5068621;28;1977;-68
2021/03/13 13:26:37;;;;;;;;;;;20.50;52.80;;;;;;5052960;28;1296;-67
2021/03/13 13:29:02;;;;;;;;;;;20.50;52.60;;;;;;5052180;28;1267;-67
2021/03/13 13:31:28;;;;;;;;;;;20.60;52.50;;;;;;5035840;28;1183;-67
2021/03/13 13:33:53;;;;;;;;;;;20.70;52.40;;;;;;5032999;28;1256;-67
2021/03/13 13:36:19;;;;;;;;;;;20.70;52.20;;;;;;5032841;28;1390;-68
2021/03/13 13:38:44;;;;;;;;;;;20.80;52.20;;;;;;5032472;28;1267;-68
2021/03/13 13:41:10;;;;;;;;;;;20.80;52.10;;;;;;5032874;28;1319;-68
2021/03/13 13:43:35;;;;;;;;;;;20.80;52.00;;;;;;5039061;28;1271;-67
2021/03/13 13:46:01;;;;;;;;;;;20.90;51.90;;;;;;5045825;28;1961;-69
2021/03/13 13:48:26;;;;;;;;;;;20.90;51.80;;;;;;5039236;28;893;-71
2021/03/13 13:50:51;;;;;;;;;;;21.00;51.80;;;;;;5069211;28;1293;-70
2021/03/13 13:53:17;;;;;;;;;;;21.00;51.70;;;;;;5052504;28;1338;-70
2021/03/13 13:55:43;;;;;;;;;;;21.00;51.60;;;;;;5053193;28;1339;-70
2021/03/13 13:58:09;;;;;;;;;;;21.00;51.60;;;;;;5051443;28;1317;-70
2021/03/13 14:00:34;;;;;;;;;;;21.10;51.60;;;;;;5039852;28;1269;-67
2021/03/13 14:02:59;;;;;;;;;;;21.10;51.50;;;;;;5031240;28;1406;-67
2021/03/13 14:05:25;;;;;;;;;;;21.10;51.50;;;;;;5030537;28;1973;-65
2021/03/13 14:07:50;;;;;;;;;;;21.10;51.50;;;;;;5031426;28;968;-68
2021/03/13 14:10:16;;;;;;;;;;;21.10;51.40;;;;;;5025480;28;1273;-67
2021/03/13 14:12:41;;;;;;;;;;;21.10;51.40;;;;;;5052690;28;1333;-67
2021/03/13 14:15:07;;;;;;;;;;;21.10;51.40;;;;;;5049994;28;1426;-67
2021/03/13 14:17:32;;;;;;;;;;;21.20;51.40;;;;;;5033229;28;1255;-68
2021/03/13 14:19:59;;;;;;;;;;;21.20;51.40;;;;;;5032887;28;1349;-67
2021/03/13 14:22:25;;;;;;;;;;;21.20;51.40;;;;;;5033535;28;1319;-68
2021/03/13 14:24:50;;;;;;;;;;;21.20;51.50;;;;;;5032818;28;1963;-68
2021/03/13 14:27:16;;;;;;;;;;;21.20;51.50;;;;;;5033204;28;1315;-68
2021/03/13 14:29:42;;;;;;;;;;;21.10;51.50;;;;;;5032993;28;1335;-68